sensor_id;sensor_type;location;lat;lon;timestamp;P1;durP1;ratioP1;P2;durP2;ratioP2
79728;SDS011;69218;52.132;5.418;2023-09-18T00:00:31;17.05;;;9.05;;
79728;SDS011;69218;52.132;5.418;2023-09-18T00:02:59;13.60;;;7.93;;
79728;SDS011;69218;52.132;5.418;2023-09-18T00:05:29;14.25;;;8.23;;
79728;SDS011;69218;52.132;5.418;2023-09-18T00:07:56;16.95;;;9.60;;
79728;SDS011;69218;52.132;5.418;2023-09-18T00:10:22;16.63;;;10.30;;
79728;SDS011;69218;52.132;5.418;2023-09-18T00:12:49;17.33;;;10.20;;
79728;SDS011;69218;52.132;5.418;2023-09-18T00:15:15;17.55;;;10.68;;
79728;SDS011;69218;52.132;5.418;2023-09-18T00:17:42;16.52;;;9.85;;
79728;SDS011;69218;52.132;5.418;2023-09-18T00:20:09;15.70;;;9.60;;
79728;SDS011;69218;52.132;5.418;2023-09-18T00:22:36;22.67;;;11.57;;
79728;SDS011;69218;52.132;5.418;2023-09-18T00:25:02;17.08;;;9.40;;
79728;SDS011;69218;52.132;5.418;2023-09-18T00:27:32;19.00;;;10.98;;
79728;SDS011;69218;52.132;5.418;2023-09-18T00:29:59;17.85;;;9.90;;
79728;SDS011;69218;52.132;5.418;2023-09-18T00:32:25;16.13;;;10.10;;
79728;SDS011;69218;52.132;5.418;2023-09-18T00:34:52;20.30;;;11.20;;
79728;SDS011;69218;52.132;5.418;2023-09-18T00:37:18;16.23;;;9.85;;
79728;SDS011;69218;52.132;5.418;2023-09-18T00:39:45;17.08;;;10.18;;
79728;SDS011;69218;52.132;5.418;2023-09-18T00:42:12;20.45;;;10.50;;
79728;SDS011;69218;52.132;5.418;2023-09-18T00:44:42;17.52;;;9.68;;
79728;SDS011;69218;52.132;5.418;2023-09-18T00:47:08;17.35;;;9.90;;
79728;SDS011;69218;52.132;5.418;2023-09-18T00:49:39;23.77;;;10.50;;
79728;SDS011;69218;52.132;5.418;2023-09-18T00:52:07;16.48;;;9.95;;
79728;SDS011;69218;52.132;5.418;2023-09-18T00:54:36;13.90;;;9.05;;
79728;SDS011;69218;52.132;5.418;2023-09-18T00:57:08;14.15;;;9.15;;
79728;SDS011;69218;52.132;5.418;2023-09-18T00:59:38;14.68;;;9.90;;
79728;SDS011;69218;52.132;5.418;2023-09-18T01:02:05;17.35;;;9.88;;
79728;SDS011;69218;52.132;5.418;2023-09-18T01:04:32;15.68;;;9.50;;
79728;SDS011;69218;52.132;5.418;2023-09-18T01:07:00;14.82;;;9.02;;
79728;SDS011;69218;52.132;5.418;2023-09-18T01:09:33;14.18;;;8.18;;
79728;SDS011;69218;52.132;5.418;2023-09-18T01:17:10;16.00;;;10.05;;
79728;SDS011;69218;52.132;5.418;2023-09-18T01:19:41;16.70;;;9.88;;
79728;SDS011;69218;52.132;5.418;2023-09-18T01:22:11;17.88;;;9.77;;
79728;SDS011;69218;52.132;5.418;2023-09-18T01:24:43;15.65;;;9.57;;
79728;SDS011;69218;52.132;5.418;2023-09-18T01:27:11;18.15;;;9.98;;
79728;SDS011;69218;52.132;5.418;2023-09-18T01:29:39;18.67;;;11.00;;
79728;SDS011;69218;52.132;5.418;2023-09-18T01:32:06;16.90;;;10.93;;
79728;SDS011;69218;52.132;5.418;2023-09-18T01:34:54;17.48;;;10.70;;
79728;SDS011;69218;52.132;5.418;2023-09-18T01:37:23;17.48;;;10.75;;
79728;SDS011;69218;52.132;5.418;2023-09-18T01:39:52;16.40;;;10.38;;
79728;SDS011;69218;52.132;5.418;2023-09-18T01:42:19;17.02;;;10.95;;
79728;SDS011;69218;52.132;5.418;2023-09-18T01:44:47;17.75;;;10.80;;
79728;SDS011;69218;52.132;5.418;2023-09-18T01:47:16;17.58;;;10.98;;
79728;SDS011;69218;52.132;5.418;2023-09-18T01:49:44;18.95;;;11.00;;
79728;SDS011;69218;52.132;5.418;2023-09-18T01:52:14;15.85;;;10.23;;
79728;SDS011;69218;52.132;5.418;2023-09-18T01:54:41;16.52;;;10.07;;
79728;SDS011;69218;52.132;5.418;2023-09-18T01:57:08;16.42;;;10.20;;
79728;SDS011;69218;52.132;5.418;2023-09-18T01:59:34;15.73;;;8.70;;
79728;SDS011;69218;52.132;5.418;2023-09-18T02:02:02;13.15;;;8.50;;
79728;SDS011;69218;52.132;5.418;2023-09-18T02:04:33;14.43;;;8.82;;
79728;SDS011;69218;52.132;5.418;2023-09-18T02:09:46;14.07;;;8.02;;
79728;SDS011;69218;52.132;5.418;2023-09-18T02:12:13;12.68;;;8.15;;
79728;SDS011;69218;52.132;5.418;2023-09-18T02:14:44;15.13;;;8.63;;
79728;SDS011;69218;52.132;5.418;2023-09-18T02:17:11;16.23;;;9.00;;
79728;SDS011;69218;52.132;5.418;2023-09-18T02:19:38;13.88;;;8.68;;
79728;SDS011;69218;52.132;5.418;2023-09-18T02:22:04;14.98;;;9.50;;
79728;SDS011;69218;52.132;5.418;2023-09-18T02:24:31;14.52;;;9.30;;
79728;SDS011;69218;52.132;5.418;2023-09-18T02:26:58;16.52;;;9.35;;
79728;SDS011;69218;52.132;5.418;2023-09-18T02:29:24;14.40;;;9.57;;
79728;SDS011;69218;52.132;5.418;2023-09-18T02:31:51;14.05;;;9.05;;
79728;SDS011;69218;52.132;5.418;2023-09-18T02:34:18;12.80;;;8.65;;
79728;SDS011;69218;52.132;5.418;2023-09-18T02:36:45;15.10;;;9.63;;
79728;SDS011;69218;52.132;5.418;2023-09-18T02:39:13;16.15;;;10.52;;
79728;SDS011;69218;52.132;5.418;2023-09-18T02:41:39;14.50;;;9.10;;
79728;SDS011;69218;52.132;5.418;2023-09-18T02:44:06;16.10;;;9.48;;
79728;SDS011;69218;52.132;5.418;2023-09-18T02:46:32;16.23;;;8.93;;
79728;SDS011;69218;52.132;5.418;2023-09-18T02:48:59;18.17;;;11.00;;
79728;SDS011;69218;52.132;5.418;2023-09-18T02:51:26;19.33;;;10.13;;
79728;SDS011;69218;52.132;5.418;2023-09-18T02:53:53;16.15;;;10.25;;
79728;SDS011;69218;52.132;5.418;2023-09-18T02:56:20;17.88;;;10.77;;
79728;SDS011;69218;52.132;5.418;2023-09-18T02:58:47;18.27;;;11.13;;
79728;SDS011;69218;52.132;5.418;2023-09-18T03:01:13;16.67;;;10.93;;
79728;SDS011;69218;52.132;5.418;2023-09-18T03:03:40;19.23;;;10.73;;
79728;SDS011;69218;52.132;5.418;2023-09-18T03:06:08;16.20;;;10.93;;
79728;SDS011;69218;52.132;5.418;2023-09-18T03:08:34;17.45;;;11.15;;
79728;SDS011;69218;52.132;5.418;2023-09-18T03:11:01;18.25;;;10.90;;
79728;SDS011;69218;52.132;5.418;2023-09-18T03:13:30;19.60;;;12.10;;
79728;SDS011;69218;52.132;5.418;2023-09-18T03:15:57;16.65;;;11.20;;
79728;SDS011;69218;52.132;5.418;2023-09-18T03:18:23;18.60;;;11.27;;
79728;SDS011;69218;52.132;5.418;2023-09-18T03:20:50;18.70;;;11.30;;
79728;SDS011;69218;52.132;5.418;2023-09-18T03:23:17;19.98;;;12.23;;
79728;SDS011;69218;52.132;5.418;2023-09-18T03:25:43;19.23;;;10.75;;
79728;SDS011;69218;52.132;5.418;2023-09-18T03:28:16;21.05;;;11.48;;
79728;SDS011;69218;52.132;5.418;2023-09-18T03:30:42;20.55;;;10.98;;
79728;SDS011;69218;52.132;5.418;2023-09-18T03:33:09;18.33;;;11.77;;
79728;SDS011;69218;52.132;5.418;2023-09-18T03:35:45;16.55;;;10.55;;
79728;SDS011;69218;52.132;5.418;2023-09-18T03:38:16;18.27;;;10.27;;
79728;SDS011;69218;52.132;5.418;2023-09-18T03:40:43;16.00;;;10.30;;
79728;SDS011;69218;52.132;5.418;2023-09-18T03:43:10;17.75;;;10.15;;
79728;SDS011;69218;52.132;5.418;2023-09-18T03:45:38;16.90;;;10.43;;
79728;SDS011;69218;52.132;5.418;2023-09-18T03:48:08;19.20;;;9.85;;
79728;SDS011;69218;52.132;5.418;2023-09-18T03:50:36;16.35;;;9.43;;
79728;SDS011;69218;52.132;5.418;2023-09-18T03:53:03;14.43;;;9.23;;
79728;SDS011;69218;52.132;5.418;2023-09-18T03:55:29;17.05;;;9.73;;
79728;SDS011;69218;52.132;5.418;2023-09-18T03:57:56;17.40;;;10.82;;
79728;SDS011;69218;52.132;5.418;2023-09-18T04:00:23;17.92;;;9.98;;
79728;SDS011;69218;52.132;5.418;2023-09-18T04:02:50;16.58;;;10.30;;
79728;SDS011;69218;52.132;5.418;2023-09-18T04:05:17;16.48;;;9.65;;
79728;SDS011;69218;52.132;5.418;2023-09-18T04:07:44;15.32;;;9.25;;
79728;SDS011;69218;52.132;5.418;2023-09-18T04:10:13;15.75;;;9.38;;
79728;SDS011;69218;52.132;5.418;2023-09-18T04:12:50;16.80;;;9.73;;
79728;SDS011;69218;52.132;5.418;2023-09-18T04:15:17;18.00;;;9.65;;
79728;SDS011;69218;52.132;5.418;2023-09-18T04:17:45;20.17;;;11.25;;
79728;SDS011;69218;52.132;5.418;2023-09-18T04:20:12;20.17;;;10.88;;
79728;SDS011;69218;52.132;5.418;2023-09-18T04:22:43;18.17;;;9.98;;
79728;SDS011;69218;52.132;5.418;2023-09-18T04:25:12;17.65;;;9.75;;
79728;SDS011;69218;52.132;5.418;2023-09-18T04:27:38;16.83;;;10.63;;
79728;SDS011;69218;52.132;5.418;2023-09-18T04:30:06;17.42;;;10.32;;
79728;SDS011;69218;52.132;5.418;2023-09-18T04:32:39;17.33;;;10.45;;
79728;SDS011;69218;52.132;5.418;2023-09-18T04:35:06;16.00;;;9.35;;
79728;SDS011;69218;52.132;5.418;2023-09-18T04:37:35;18.33;;;10.50;;
79728;SDS011;69218;52.132;5.418;2023-09-18T04:40:03;16.33;;;9.32;;
79728;SDS011;69218;52.132;5.418;2023-09-18T04:42:37;18.85;;;10.55;;
79728;SDS011;69218;52.132;5.418;2023-09-18T04:45:05;17.70;;;10.52;;
79728;SDS011;69218;52.132;5.418;2023-09-18T04:47:32;17.50;;;9.85;;
79728;SDS011;69218;52.132;5.418;2023-09-18T04:49:59;17.92;;;9.50;;
79728;SDS011;69218;52.132;5.418;2023-09-18T04:52:25;15.75;;;9.60;;
79728;SDS011;69218;52.132;5.418;2023-09-18T04:54:52;16.65;;;9.85;;
79728;SDS011;69218;52.132;5.418;2023-09-18T04:57:20;18.75;;;9.93;;
79728;SDS011;69218;52.132;5.418;2023-09-18T04:59:50;15.27;;;9.05;;
79728;SDS011;69218;52.132;5.418;2023-09-18T05:02:37;17.02;;;9.43;;
79728;SDS011;69218;52.132;5.418;2023-09-18T05:05:06;21.42;;;10.85;;
79728;SDS011;69218;52.132;5.418;2023-09-18T05:07:36;18.38;;;9.18;;
79728;SDS011;69218;52.132;5.418;2023-09-18T05:10:03;18.98;;;8.43;;
79728;SDS011;69218;52.132;5.418;2023-09-18T05:12:31;18.48;;;8.98;;
79728;SDS011;69218;52.132;5.418;2023-09-18T05:14:58;16.20;;;8.27;;
79728;SDS011;69218;52.132;5.418;2023-09-18T05:17:38;12.27;;;7.45;;
79728;SDS011;69218;52.132;5.418;2023-09-18T05:20:09;13.82;;;6.20;;
79728;SDS011;69218;52.132;5.418;2023-09-18T05:22:38;9.20;;;5.07;;
79728;SDS011;69218;52.132;5.418;2023-09-18T05:25:05;10.23;;;5.28;;
79728;SDS011;69218;52.132;5.418;2023-09-18T05:27:33;9.25;;;5.00;;
79728;SDS011;69218;52.132;5.418;2023-09-18T05:29:59;8.60;;;4.80;;
79728;SDS011;69218;52.132;5.418;2023-09-18T05:32:26;9.38;;;5.15;;
79728;SDS011;69218;52.132;5.418;2023-09-18T05:34:53;8.43;;;4.50;;
79728;SDS011;69218;52.132;5.418;2023-09-18T05:37:19;8.63;;;4.57;;
79728;SDS011;69218;52.132;5.418;2023-09-18T05:39:48;8.77;;;4.55;;
79728;SDS011;69218;52.132;5.418;2023-09-18T05:42:15;7.05;;;4.20;;
79728;SDS011;69218;52.132;5.418;2023-09-18T05:44:42;7.50;;;4.35;;
79728;SDS011;69218;52.132;5.418;2023-09-18T05:47:09;7.95;;;4.65;;
79728;SDS011;69218;52.132;5.418;2023-09-18T05:49:35;8.10;;;4.15;;
79728;SDS011;69218;52.132;5.418;2023-09-18T05:52:02;8.18;;;4.25;;
79728;SDS011;69218;52.132;5.418;2023-09-18T05:54:29;8.23;;;4.00;;
79728;SDS011;69218;52.132;5.418;2023-09-18T05:56:58;8.15;;;3.95;;
79728;SDS011;69218;52.132;5.418;2023-09-18T05:59:24;6.95;;;4.18;;
79728;SDS011;69218;52.132;5.418;2023-09-18T06:01:51;7.90;;;4.28;;
79728;SDS011;69218;52.132;5.418;2023-09-18T06:04:20;7.32;;;3.72;;
79728;SDS011;69218;52.132;5.418;2023-09-18T06:06:47;8.25;;;4.22;;
79728;SDS011;69218;52.132;5.418;2023-09-18T06:09:14;7.63;;;4.05;;
79728;SDS011;69218;52.132;5.418;2023-09-18T06:11:40;7.78;;;4.20;;
79728;SDS011;69218;52.132;5.418;2023-09-18T06:14:07;8.65;;;5.35;;
79728;SDS011;69218;52.132;5.418;2023-09-18T06:16:34;9.20;;;4.38;;
79728;SDS011;69218;52.132;5.418;2023-09-18T06:19:00;7.85;;;4.20;;
79728;SDS011;69218;52.132;5.418;2023-09-18T06:21:27;9.57;;;4.82;;
79728;SDS011;69218;52.132;5.418;2023-09-18T06:23:55;8.63;;;4.70;;
79728;SDS011;69218;52.132;5.418;2023-09-18T06:26:21;13.52;;;4.97;;
79728;SDS011;69218;52.132;5.418;2023-09-18T06:28:48;10.43;;;4.75;;
79728;SDS011;69218;52.132;5.418;2023-09-18T06:31:18;7.88;;;4.72;;
79728;SDS011;69218;52.132;5.418;2023-09-18T06:33:46;8.55;;;5.13;;
79728;SDS011;69218;52.132;5.418;2023-09-18T06:36:13;9.77;;;5.15;;
79728;SDS011;69218;52.132;5.418;2023-09-18T06:38:43;9.30;;;5.72;;
79728;SDS011;69218;52.132;5.418;2023-09-18T06:41:09;11.18;;;5.65;;
79728;SDS011;69218;52.132;5.418;2023-09-18T06:43:36;8.95;;;5.55;;
79728;SDS011;69218;52.132;5.418;2023-09-18T06:46:03;9.55;;;5.60;;
79728;SDS011;69218;52.132;5.418;2023-09-18T06:48:30;9.68;;;5.65;;
79728;SDS011;69218;52.132;5.418;2023-09-18T06:50:59;10.15;;;5.18;;
79728;SDS011;69218;52.132;5.418;2023-09-18T06:53:28;13.07;;;5.10;;
79728;SDS011;69218;52.132;5.418;2023-09-18T06:55:55;10.73;;;5.75;;
79728;SDS011;69218;52.132;5.418;2023-09-18T06:58:21;11.50;;;5.72;;
79728;SDS011;69218;52.132;5.418;2023-09-18T07:00:48;11.40;;;5.45;;
79728;SDS011;69218;52.132;5.418;2023-09-18T07:03:16;9.00;;;5.78;;
79728;SDS011;69218;52.132;5.418;2023-09-18T07:05:45;10.45;;;6.15;;
79728;SDS011;69218;52.132;5.418;2023-09-18T07:08:12;10.45;;;6.32;;
79728;SDS011;69218;52.132;5.418;2023-09-18T07:10:39;9.77;;;5.68;;
79728;SDS011;69218;52.132;5.418;2023-09-18T07:13:06;11.25;;;6.10;;
79728;SDS011;69218;52.132;5.418;2023-09-18T07:15:33;13.88;;;6.53;;
79728;SDS011;69218;52.132;5.418;2023-09-18T07:17:59;10.18;;;5.15;;
79728;SDS011;69218;52.132;5.418;2023-09-18T07:20:26;10.00;;;5.43;;
79728;SDS011;69218;52.132;5.418;2023-09-18T07:22:52;13.45;;;6.63;;
79728;SDS011;69218;52.132;5.418;2023-09-18T07:25:19;11.27;;;6.30;;
79728;SDS011;69218;52.132;5.418;2023-09-18T07:27:46;11.95;;;6.45;;
79728;SDS011;69218;52.132;5.418;2023-09-18T07:30:13;11.65;;;6.32;;
79728;SDS011;69218;52.132;5.418;2023-09-18T07:32:43;10.63;;;6.22;;
79728;SDS011;69218;52.132;5.418;2023-09-18T07:35:10;12.27;;;5.85;;
79728;SDS011;69218;52.132;5.418;2023-09-18T07:37:37;12.68;;;6.50;;
79728;SDS011;69218;52.132;5.418;2023-09-18T07:40:05;11.02;;;6.10;;
79728;SDS011;69218;52.132;5.418;2023-09-18T07:42:34;12.60;;;6.00;;
79728;SDS011;69218;52.132;5.418;2023-09-18T07:45:00;9.70;;;5.88;;
79728;SDS011;69218;52.132;5.418;2023-09-18T07:47:27;10.77;;;6.05;;
79728;SDS011;69218;52.132;5.418;2023-09-18T07:49:54;9.85;;;6.07;;
79728;SDS011;69218;52.132;5.418;2023-09-18T07:52:21;9.73;;;5.88;;
79728;SDS011;69218;52.132;5.418;2023-09-18T07:54:47;10.20;;;5.43;;
79728;SDS011;69218;52.132;5.418;2023-09-18T07:57:15;9.38;;;5.63;;
79728;SDS011;69218;52.132;5.418;2023-09-18T07:59:42;9.27;;;4.97;;
79728;SDS011;69218;52.132;5.418;2023-09-18T08:02:09;11.68;;;5.68;;
79728;SDS011;69218;52.132;5.418;2023-09-18T08:04:36;9.20;;;5.30;;
79728;SDS011;69218;52.132;5.418;2023-09-18T08:07:03;9.25;;;5.20;;
79728;SDS011;69218;52.132;5.418;2023-09-18T08:09:32;6.60;;;4.22;;
79728;SDS011;69218;52.132;5.418;2023-09-18T08:12:03;7.90;;;4.22;;
79728;SDS011;69218;52.132;5.418;2023-09-18T08:14:29;9.60;;;4.88;;
79728;SDS011;69218;52.132;5.418;2023-09-18T08:16:57;6.25;;;3.95;;
79728;SDS011;69218;52.132;5.418;2023-09-18T08:19:25;7.40;;;3.88;;
79728;SDS011;69218;52.132;5.418;2023-09-18T08:21:55;5.72;;;3.50;;
79728;SDS011;69218;52.132;5.418;2023-09-18T08:24:25;7.47;;;3.88;;
79728;SDS011;69218;52.132;5.418;2023-09-18T08:26:52;6.13;;;4.07;;
79728;SDS011;69218;52.132;5.418;2023-09-18T08:29:20;5.78;;;3.70;;
79728;SDS011;69218;52.132;5.418;2023-09-18T08:31:47;8.32;;;3.58;;
79728;SDS011;69218;52.132;5.418;2023-09-18T08:34:14;5.53;;;3.42;;
79728;SDS011;69218;52.132;5.418;2023-09-18T08:36:40;5.20;;;3.35;;
79728;SDS011;69218;52.132;5.418;2023-09-18T08:39:07;6.43;;;3.30;;
79728;SDS011;69218;52.132;5.418;2023-09-18T08:41:35;7.07;;;3.45;;
79728;SDS011;69218;52.132;5.418;2023-09-18T08:44:08;6.40;;;3.05;;
79728;SDS011;69218;52.132;5.418;2023-09-18T08:46:39;6.55;;;3.47;;
79728;SDS011;69218;52.132;5.418;2023-09-18T08:49:06;5.28;;;3.17;;
79728;SDS011;69218;52.132;5.418;2023-09-18T08:51:34;4.85;;;3.08;;
79728;SDS011;69218;52.132;5.418;2023-09-18T08:54:02;6.50;;;3.25;;
79728;SDS011;69218;52.132;5.418;2023-09-18T08:56:31;5.22;;;3.15;;
79728;SDS011;69218;52.132;5.418;2023-09-18T08:59:00;5.72;;;3.17;;
79728;SDS011;69218;52.132;5.418;2023-09-18T09:01:26;5.63;;;3.03;;
79728;SDS011;69218;52.132;5.418;2023-09-18T09:03:53;6.20;;;3.28;;
79728;SDS011;69218;52.132;5.418;2023-09-18T09:06:21;4.70;;;2.83;;
79728;SDS011;69218;52.132;5.418;2023-09-18T09:08:49;6.32;;;2.60;;
79728;SDS011;69218;52.132;5.418;2023-09-18T09:13:43;7.60;;;3.28;;
79728;SDS011;69218;52.132;5.418;2023-09-18T09:16:12;8.30;;;2.65;;
79728;SDS011;69218;52.132;5.418;2023-09-18T09:18:47;4.80;;;2.92;;
79728;SDS011;69218;52.132;5.418;2023-09-18T09:21:15;4.07;;;2.65;;
79728;SDS011;69218;52.132;5.418;2023-09-18T09:26:22;5.95;;;3.10;;
79728;SDS011;69218;52.132;5.418;2023-09-18T09:28:53;6.38;;;2.88;;
79728;SDS011;69218;52.132;5.418;2023-09-18T09:31:27;5.53;;;2.53;;
79728;SDS011;69218;52.132;5.418;2023-09-18T09:33:55;5.22;;;3.25;;
79728;SDS011;69218;52.132;5.418;2023-09-18T09:36:25;5.15;;;2.65;;
79728;SDS011;69218;52.132;5.418;2023-09-18T09:38:54;3.42;;;2.38;;
79728;SDS011;69218;52.132;5.418;2023-09-18T09:41:24;4.95;;;2.40;;
79728;SDS011;69218;52.132;5.418;2023-09-18T09:43:54;4.10;;;2.35;;
79728;SDS011;69218;52.132;5.418;2023-09-18T09:46:24;3.72;;;2.20;;
79728;SDS011;69218;52.132;5.418;2023-09-18T09:48:57;3.38;;;2.65;;
79728;SDS011;69218;52.132;5.418;2023-09-18T09:51:28;4.70;;;2.60;;
79728;SDS011;69218;52.132;5.418;2023-09-18T09:53:55;5.25;;;3.13;;
79728;SDS011;69218;52.132;5.418;2023-09-18T09:56:43;4.90;;;3.70;;
79728;SDS011;69218;52.132;5.418;2023-09-18T09:59:20;5.93;;;3.88;;
79728;SDS011;69218;52.132;5.418;2023-09-18T10:01:47;5.05;;;4.00;;
79728;SDS011;69218;52.132;5.418;2023-09-18T10:04:17;5.10;;;4.25;;
79728;SDS011;69218;52.132;5.418;2023-09-18T10:06:57;5.20;;;4.25;;
79728;SDS011;69218;52.132;5.418;2023-09-18T10:09:38;5.18;;;4.13;;
79728;SDS011;69218;52.132;5.418;2023-09-18T10:12:10;6.35;;;4.78;;
79728;SDS011;69218;52.132;5.418;2023-09-18T10:14:37;8.20;;;4.45;;
79728;SDS011;69218;52.132;5.418;2023-09-18T10:17:25;5.05;;;4.43;;
79728;SDS011;69218;52.132;5.418;2023-09-18T10:22:30;5.63;;;4.22;;
79728;SDS011;69218;52.132;5.418;2023-09-18T10:25:11;4.78;;;4.03;;
79728;SDS011;69218;52.132;5.418;2023-09-18T10:27:48;6.38;;;3.88;;
79728;SDS011;69218;52.132;5.418;2023-09-18T10:30:15;6.40;;;3.92;;
79728;SDS011;69218;52.132;5.418;2023-09-18T10:32:45;6.50;;;4.40;;
79728;SDS011;69218;52.132;5.418;2023-09-18T10:35:12;6.32;;;4.43;;
79728;SDS011;69218;52.132;5.418;2023-09-18T10:37:41;6.57;;;4.63;;
79728;SDS011;69218;52.132;5.418;2023-09-18T10:40:09;5.85;;;4.32;;
79728;SDS011;69218;52.132;5.418;2023-09-18T10:42:40;7.50;;;5.18;;
79728;SDS011;69218;52.132;5.418;2023-09-18T10:45:09;7.10;;;5.13;;
79728;SDS011;69218;52.132;5.418;2023-09-18T10:47:40;7.07;;;5.65;;
79728;SDS011;69218;52.132;5.418;2023-09-18T10:50:09;7.45;;;5.68;;
79728;SDS011;69218;52.132;5.418;2023-09-18T10:52:37;6.90;;;5.32;;
79728;SDS011;69218;52.132;5.418;2023-09-18T10:55:13;6.50;;;5.35;;
79728;SDS011;69218;52.132;5.418;2023-09-18T10:57:50;8.77;;;5.78;;
79728;SDS011;69218;52.132;5.418;2023-09-18T11:00:18;7.25;;;5.50;;
79728;SDS011;69218;52.132;5.418;2023-09-18T11:02:50;6.72;;;5.22;;
79728;SDS011;69218;52.132;5.418;2023-09-18T11:05:30;6.70;;;5.50;;
79728;SDS011;69218;52.132;5.418;2023-09-18T11:11:02;8.48;;;5.50;;
79728;SDS011;69218;52.132;5.418;2023-09-18T11:13:41;7.15;;;4.78;;
79728;SDS011;69218;52.132;5.418;2023-09-18T11:16:14;8.18;;;4.50;;
79728;SDS011;69218;52.132;5.418;2023-09-18T11:18:52;5.53;;;4.57;;
79728;SDS011;69218;52.132;5.418;2023-09-18T11:21:32;7.13;;;4.57;;
79728;SDS011;69218;52.132;5.418;2023-09-18T11:24:07;6.45;;;4.57;;
79728;SDS011;69218;52.132;5.418;2023-09-18T11:26:42;9.18;;;4.55;;
79728;SDS011;69218;52.132;5.418;2023-09-18T11:29:10;6.00;;;3.83;;
79728;SDS011;69218;52.132;5.418;2023-09-18T11:31:44;5.82;;;3.90;;
79728;SDS011;69218;52.132;5.418;2023-09-18T11:36:48;6.03;;;3.65;;
79728;SDS011;69218;52.132;5.418;2023-09-18T11:42:07;5.13;;;3.75;;
79728;SDS011;69218;52.132;5.418;2023-09-18T11:44:45;6.95;;;3.95;;
79728;SDS011;69218;52.132;5.418;2023-09-18T11:47:15;5.03;;;3.50;;
79728;SDS011;69218;52.132;5.418;2023-09-18T11:49:47;6.30;;;4.13;;
79728;SDS011;69218;52.132;5.418;2023-09-18T11:52:25;7.80;;;4.63;;
79728;SDS011;69218;52.132;5.418;2023-09-18T11:54:53;6.63;;;4.85;;
79728;SDS011;69218;52.132;5.418;2023-09-18T11:57:23;6.57;;;4.90;;
79728;SDS011;69218;52.132;5.418;2023-09-18T11:59:50;7.43;;;5.20;;
79728;SDS011;69218;52.132;5.418;2023-09-18T12:02:27;8.50;;;5.15;;
79728;SDS011;69218;52.132;5.418;2023-09-18T12:05:20;6.85;;;5.00;;
79728;SDS011;69218;52.132;5.418;2023-09-18T12:07:51;6.95;;;5.10;;
79728;SDS011;69218;52.132;5.418;2023-09-18T12:10:19;8.77;;;4.60;;
79728;SDS011;69218;52.132;5.418;2023-09-18T12:12:49;5.28;;;3.95;;
79728;SDS011;69218;52.132;5.418;2023-09-18T12:15:19;7.03;;;3.63;;
79728;SDS011;69218;52.132;5.418;2023-09-18T12:17:53;5.57;;;4.00;;
79728;SDS011;69218;52.132;5.418;2023-09-18T12:20:21;6.72;;;3.90;;
79728;SDS011;69218;52.132;5.418;2023-09-18T12:22:48;5.20;;;3.42;;
79728;SDS011;69218;52.132;5.418;2023-09-18T12:25:16;6.10;;;3.60;;
79728;SDS011;69218;52.132;5.418;2023-09-18T12:27:45;5.30;;;2.97;;
79728;SDS011;69218;52.132;5.418;2023-09-18T12:30:12;5.13;;;3.80;;
79728;SDS011;69218;52.132;5.418;2023-09-18T12:32:41;6.53;;;3.35;;
79728;SDS011;69218;52.132;5.418;2023-09-18T12:35:08;4.88;;;3.35;;
79728;SDS011;69218;52.132;5.418;2023-09-18T12:37:41;6.32;;;3.65;;
79728;SDS011;69218;52.132;5.418;2023-09-18T12:40:27;6.57;;;3.22;;
79728;SDS011;69218;52.132;5.418;2023-09-18T12:42:55;6.10;;;3.05;;
79728;SDS011;69218;52.132;5.418;2023-09-18T12:45:26;5.65;;;3.25;;
79728;SDS011;69218;52.132;5.418;2023-09-18T12:47:55;5.97;;;3.22;;
79728;SDS011;69218;52.132;5.418;2023-09-18T12:50:24;4.97;;;2.97;;
79728;SDS011;69218;52.132;5.418;2023-09-18T12:55:22;4.13;;;2.95;;
79728;SDS011;69218;52.132;5.418;2023-09-18T12:57:50;5.97;;;3.40;;
79728;SDS011;69218;52.132;5.418;2023-09-18T13:00:20;4.43;;;2.88;;
79728;SDS011;69218;52.132;5.418;2023-09-18T13:02:53;7.47;;;3.45;;
79728;SDS011;69218;52.132;5.418;2023-09-18T13:05:22;8.07;;;3.78;;
79728;SDS011;69218;52.132;5.418;2023-09-18T13:07:53;7.65;;;3.45;;
79728;SDS011;69218;52.132;5.418;2023-09-18T13:10:22;4.72;;;3.17;;
79728;SDS011;69218;52.132;5.418;2023-09-18T13:12:52;5.53;;;3.42;;
79728;SDS011;69218;52.132;5.418;2023-09-18T13:15:31;5.72;;;3.22;;
79728;SDS011;69218;52.132;5.418;2023-09-18T13:18:08;5.22;;;3.05;;
79728;SDS011;69218;52.132;5.418;2023-09-18T13:20:35;8.30;;;3.15;;
79728;SDS011;69218;52.132;5.418;2023-09-18T13:23:02;5.78;;;3.35;;
79728;SDS011;69218;52.132;5.418;2023-09-18T13:25:33;5.60;;;2.67;;
79728;SDS011;69218;52.132;5.418;2023-09-18T13:28:09;4.85;;;2.88;;
79728;SDS011;69218;52.132;5.418;2023-09-18T13:30:37;4.72;;;2.70;;
79728;SDS011;69218;52.132;5.418;2023-09-18T13:33:08;6.28;;;3.03;;
79728;SDS011;69218;52.132;5.418;2023-09-18T13:35:37;4.93;;;2.70;;
79728;SDS011;69218;52.132;5.418;2023-09-18T13:38:06;3.95;;;2.42;;
79728;SDS011;69218;52.132;5.418;2023-09-18T13:40:44;4.70;;;2.70;;
79728;SDS011;69218;52.132;5.418;2023-09-18T13:43:13;5.78;;;2.28;;
79728;SDS011;69218;52.132;5.418;2023-09-18T13:45:45;5.30;;;3.05;;
79728;SDS011;69218;52.132;5.418;2023-09-18T13:48:12;6.18;;;2.40;;
79728;SDS011;69218;52.132;5.418;2023-09-18T13:50:38;4.90;;;2.28;;
79728;SDS011;69218;52.132;5.418;2023-09-18T13:53:05;7.28;;;2.33;;
79728;SDS011;69218;52.132;5.418;2023-09-18T13:55:33;4.90;;;2.47;;
79728;SDS011;69218;52.132;5.418;2023-09-18T13:58:00;3.50;;;2.00;;
79728;SDS011;69218;52.132;5.418;2023-09-18T14:00:30;3.13;;;1.58;;
79728;SDS011;69218;52.132;5.418;2023-09-18T14:02:57;3.63;;;1.63;;
79728;SDS011;69218;52.132;5.418;2023-09-18T14:05:24;3.50;;;1.92;;
79728;SDS011;69218;52.132;5.418;2023-09-18T14:07:53;3.25;;;1.73;;
79728;SDS011;69218;52.132;5.418;2023-09-18T14:10:26;4.05;;;2.13;;
79728;SDS011;69218;52.132;5.418;2023-09-18T14:12:53;5.15;;;1.98;;
79728;SDS011;69218;52.132;5.418;2023-09-18T14:15:20;4.10;;;1.80;;
79728;SDS011;69218;52.132;5.418;2023-09-18T14:17:47;4.07;;;1.58;;
79728;SDS011;69218;52.132;5.418;2023-09-18T14:20:14;3.78;;;1.73;;
79728;SDS011;69218;52.132;5.418;2023-09-18T14:22:44;2.97;;;1.52;;
79728;SDS011;69218;52.132;5.418;2023-09-18T14:25:12;3.38;;;1.38;;
79728;SDS011;69218;52.132;5.418;2023-09-18T14:27:39;2.70;;;1.52;;
79728;SDS011;69218;52.132;5.418;2023-09-18T14:30:06;3.35;;;1.55;;
79728;SDS011;69218;52.132;5.418;2023-09-18T14:32:34;5.22;;;1.70;;
79728;SDS011;69218;52.132;5.418;2023-09-18T14:35:03;2.30;;;1.23;;
79728;SDS011;69218;52.132;5.418;2023-09-18T14:37:35;3.00;;;1.60;;
79728;SDS011;69218;52.132;5.418;2023-09-18T14:40:02;5.03;;;1.42;;
79728;SDS011;69218;52.132;5.418;2023-09-18T14:42:29;3.83;;;1.50;;
79728;SDS011;69218;52.132;5.418;2023-09-18T14:44:56;3.25;;;1.63;;
79728;SDS011;69218;52.132;5.418;2023-09-18T14:47:22;4.75;;;1.60;;
79728;SDS011;69218;52.132;5.418;2023-09-18T14:49:50;4.32;;;1.80;;
79728;SDS011;69218;52.132;5.418;2023-09-18T14:52:18;3.75;;;1.70;;
79728;SDS011;69218;52.132;5.418;2023-09-18T14:54:45;3.45;;;1.33;;
79728;SDS011;69218;52.132;5.418;2023-09-18T14:57:12;4.18;;;1.85;;
79728;SDS011;69218;52.132;5.418;2023-09-18T14:59:38;3.35;;;1.65;;
79728;SDS011;69218;52.132;5.418;2023-09-18T15:02:08;3.10;;;1.40;;
79728;SDS011;69218;52.132;5.418;2023-09-18T15:04:35;2.42;;;1.40;;
79728;SDS011;69218;52.132;5.418;2023-09-18T15:07:02;6.60;;;1.63;;
79728;SDS011;69218;52.132;5.418;2023-09-18T15:09:29;5.40;;;1.60;;
79728;SDS011;69218;52.132;5.418;2023-09-18T15:11:56;6.85;;;1.65;;
79728;SDS011;69218;52.132;5.418;2023-09-18T15:14:22;4.00;;;2.17;;
79728;SDS011;69218;52.132;5.418;2023-09-18T15:16:49;4.32;;;1.73;;